PWSweather.com
Personal Weather Stations
Station Observations
IMAZOWIE6
WarszawaPL

WarszawaPL

Lat: 52.27957, Lon: 21.05489

Elevation: 100

Station Type: WS1080

http://stacjapogody.waw.pl/

High Low Average
Temperature 44.4°F6.9°C 34.5°F1.4°C 38.4°F3.6°C
Dew Point 13.1°F-10.5°C -169.1°F-111.7°C -25.7°F-32.1°C
Winds 2.8 mph 4.5 kmh Calm Calm 1.0 mph N1.6 kmh N
Wind Gusts 4.8 mph7.7 kmh -- 3.0 mph4.8 kmh
Humidity 28% 10% 17%
Pressure 29.76 in1007.8 mb 29.57 in1001.4 mb -
Precipitation 0.00 in0.0 mm - -
Hour Temp Dew Point Humidity Winds Wind Gusts Pressure Precip Precip Rate Daily Precip Total
12:01 AM 37.2°F2.9°C -5.0°F-20.6°C 16% 0.6 mph N1.0 kmh N 4.0 mph6.4 kmh 29.65 in1004.1 mb 0.00 in0.0 mm 0.00 in0.0 mm 0.00 in0.0 mm
12:16 AM 37.0°F2.8°C -6.5°F-21.4°C 15% Calm Calm -- 29.66 in1004.4 mb 0.00 in0.0 mm 0.00 in0.0 mm 0.00 in0.0 mm
12:31 AM 37.2°F2.9°C -6.3°F-21.3°C 15% Calm Calm 2.0 mph3.2 kmh 29.67 in1004.7 mb 0.00 in0.0 mm 0.00 in0.0 mm 0.00 in0.0 mm
12:46 AM 36.9°F2.7°C -8.0°F-22.2°C 14% Calm Calm 0.6 mph1.0 kmh 29.67 in1004.7 mb 0.00 in0.0 mm 0.00 in0.0 mm 0.00 in0.0 mm
01:01 AM 36.5°F2.5°C -9.8°F-23.2°C 13% Calm Calm 2.0 mph3.2 kmh 29.68 in1005.1 mb 0.00 in0.0 mm 0.00 in0.0 mm 0.00 in0.0 mm
01:16 AM 36.3°F2.4°C -11.5°F-24.2°C 12% Calm Calm 1.4 mph2.3 kmh 29.68 in1005.1 mb 0.00 in0.0 mm 0.00 in0.0 mm 0.00 in0.0 mm
01:31 AM 36.1°F2.3°C -11.7°F-24.3°C 12% Calm Calm 1.4 mph2.3 kmh 29.68 in1005.1 mb 0.00 in0.0 mm 0.00 in0.0 mm 0.00 in0.0 mm
01:46 AM 36.0°F2.2°C -11.8°F-24.3°C 12% 0.6 mph N1.0 kmh N 2.0 mph3.2 kmh 29.69 in1005.4 mb 0.00 in0.0 mm 0.00 in0.0 mm 0.00 in0.0 mm
02:01 AM 35.2°F1.8°C -14.1°F-25.6°C 11% Calm Calm 1.4 mph2.3 kmh 29.70 in1005.8 mb 0.00 in0.0 mm 0.00 in0.0 mm 0.00 in0.0 mm
02:16 AM 34.9°F1.6°C -14.4°F-25.8°C 11% Calm Calm 0.6 mph1.0 kmh 29.70 in1005.8 mb 0.00 in0.0 mm 0.00 in0.0 mm 0.00 in0.0 mm
02:31 AM 34.5°F1.4°C -12.9°F-24.9°C 12% Calm Calm 1.4 mph2.3 kmh 29.70 in1005.8 mb 0.00 in0.0 mm 0.00 in0.0 mm 0.00 in0.0 mm
02:46 AM 34.5°F1.4°C -12.9°F-24.9°C 12% 0.6 mph N1.0 kmh N 3.4 mph5.5 kmh 29.70 in1005.8 mb 0.00 in0.0 mm 0.00 in0.0 mm 0.00 in0.0 mm
03:01 AM 34.9°F1.6°C -11.1°F-23.9°C 13% 0.6 mph N1.0 kmh N 3.4 mph5.5 kmh 29.70 in1005.8 mb 0.00 in0.0 mm 0.00 in0.0 mm 0.00 in0.0 mm
03:16 AM 35.1°F1.7°C -9.5°F-23.1°C 14% Calm Calm 2.8 mph4.5 kmh 29.71 in1006.1 mb 0.00 in0.0 mm 0.00 in0.0 mm 0.00 in0.0 mm
03:31 AM 35.1°F1.7°C -9.5°F-23.1°C 14% Calm Calm -- 29.71 in1006.1 mb 0.00 in0.0 mm 0.00 in0.0 mm 0.00 in0.0 mm
03:46 AM 35.2°F1.8°C -7.9°F-22.2°C 15% Calm Calm 2.8 mph4.5 kmh 29.71 in1006.1 mb 0.00 in0.0 mm 0.00 in0.0 mm 0.00 in0.0 mm
04:01 AM 35.6°F2.0°C -6.3°F-21.3°C 16% Calm Calm 0.6 mph1.0 kmh 29.72 in1006.4 mb 0.00 in0.0 mm 0.00 in0.0 mm 0.00 in0.0 mm
04:16 AM 35.6°F2.0°C -6.3°F-21.3°C 16% Calm Calm 0.6 mph1.0 kmh 29.72 in1006.4 mb 0.00 in0.0 mm 0.00 in0.0 mm 0.00 in0.0 mm
04:31 AM 36.0°F2.2°C -4.8°F-20.4°C 17% Calm Calm 1.4 mph2.3 kmh 29.72 in1006.4 mb 0.00 in0.0 mm 0.00 in0.0 mm 0.00 in0.0 mm
04:46 AM 36.3°F2.4°C -4.5°F-20.3°C 17% Calm Calm 0.6 mph1.0 kmh 29.72 in1006.4 mb 0.00 in0.0 mm 0.00 in0.0 mm 0.00 in0.0 mm
05:01 AM 36.7°F2.6°C -3.0°F-19.4°C 18% Calm Calm -- 29.73 in1006.8 mb 0.00 in0.0 mm 0.00 in0.0 mm 0.00 in0.0 mm
05:16 AM 36.7°F2.6°C -3.0°F-19.4°C 18% Calm Calm -- 29.73 in1006.8 mb 0.00 in0.0 mm 0.00 in0.0 mm 0.00 in0.0 mm
05:31 AM 36.7°F2.6°C -3.0°F-19.4°C 18% Calm Calm -- 29.73 in1006.8 mb 0.00 in0.0 mm 0.00 in0.0 mm 0.00 in0.0 mm
05:46 AM 36.7°F2.6°C -3.0°F-19.4°C 18% Calm Calm 0.6 mph1.0 kmh 29.73 in1006.8 mb 0.00 in0.0 mm 0.00 in0.0 mm 0.00 in0.0 mm
06:01 AM 36.9°F2.7°C -4.1°F-20.1°C 17% Calm Calm -- 29.73 in1006.8 mb 0.00 in0.0 mm 0.00 in0.0 mm 0.00 in0.0 mm
06:16 AM 36.9°F2.7°C -4.1°F-20.1°C 17% Calm Calm -- 29.73 in1006.8 mb 0.00 in0.0 mm 0.00 in0.0 mm 0.00 in0.0 mm
06:31 AM 36.7°F2.6°C -5.5°F-20.8°C 16% 0.6 mph N1.0 kmh N 2.8 mph4.5 kmh 29.73 in1006.8 mb 0.00 in0.0 mm 0.00 in0.0 mm 0.00 in0.0 mm
06:46 AM 36.9°F2.7°C -5.3°F-20.7°C 16% Calm Calm 2.0 mph3.2 kmh 29.74 in1007.1 mb 0.00 in0.0 mm 0.00 in0.0 mm 0.00 in0.0 mm
07:01 AM 36.9°F2.7°C -5.3°F-20.7°C 16% Calm Calm 2.0 mph3.2 kmh 29.74 in1007.1 mb 0.00 in0.0 mm 0.00 in0.0 mm 0.00 in0.0 mm
07:15 AM 36.9°F2.7°C -5.3°F-20.7°C 16% Calm Calm 2.0 mph3.2 kmh 29.74 in1007.1 mb 0.00 in0.0 mm 0.00 in0.0 mm 0.00 in0.0 mm
07:31 AM 37.0°F2.8°C -6.5°F-21.4°C 15% 0.6 mph N1.0 kmh N 3.4 mph5.5 kmh 29.74 in1007.1 mb 0.00 in0.0 mm 0.00 in0.0 mm 0.00 in0.0 mm
07:46 AM 37.0°F2.8°C -6.5°F-21.4°C 15% 0.6 mph N1.0 kmh N 3.4 mph5.5 kmh 29.74 in1007.1 mb 0.00 in0.0 mm 0.00 in0.0 mm 0.00 in0.0 mm
08:01 AM 37.0°F2.8°C -6.5°F-21.4°C 15% 0.6 mph N1.0 kmh N 3.4 mph5.5 kmh 29.74 in1007.1 mb 0.00 in0.0 mm 0.00 in0.0 mm 0.00 in0.0 mm
08:15 AM 37.0°F2.8°C -6.5°F-21.4°C 15% 0.6 mph N1.0 kmh N 3.4 mph5.5 kmh 29.74 in1007.1 mb 0.00 in0.0 mm 0.00 in0.0 mm 0.00 in0.0 mm
08:31 AM 37.0°F2.8°C -6.5°F-21.4°C 15% 0.6 mph N1.0 kmh N 3.4 mph5.5 kmh 29.74 in1007.1 mb 0.00 in0.0 mm 0.00 in0.0 mm 0.00 in0.0 mm
08:46 AM 37.0°F2.8°C -6.5°F-21.4°C 15% 0.6 mph N1.0 kmh N 3.4 mph5.5 kmh 29.74 in1007.1 mb 0.00 in0.0 mm 0.00 in0.0 mm 0.00 in0.0 mm
09:01 AM 37.0°F2.8°C -6.5°F-21.4°C 15% 0.6 mph N1.0 kmh N 3.4 mph5.5 kmh 29.74 in1007.1 mb 0.00 in0.0 mm 0.00 in0.0 mm 0.00 in0.0 mm
09:16 AM 37.0°F2.8°C -6.5°F-21.4°C 15% 0.6 mph N1.0 kmh N 3.4 mph5.5 kmh 29.74 in1007.1 mb 0.00 in0.0 mm 0.00 in0.0 mm 0.00 in0.0 mm
09:31 AM 37.0°F2.8°C -6.5°F-21.4°C 15% 0.6 mph N1.0 kmh N 3.4 mph5.5 kmh 29.74 in1007.1 mb 0.00 in0.0 mm 0.00 in0.0 mm 0.00 in0.0 mm
09:46 AM 37.0°F2.8°C -6.5°F-21.4°C 15% 0.6 mph N1.0 kmh N 3.4 mph5.5 kmh 29.74 in1007.1 mb 0.00 in0.0 mm 0.00 in0.0 mm 0.00 in0.0 mm
10:01 AM 37.0°F2.8°C -6.5°F-21.4°C 15% 0.6 mph N1.0 kmh N 3.4 mph5.5 kmh 29.74 in1007.1 mb 0.00 in0.0 mm 0.00 in0.0 mm 0.00 in0.0 mm
10:16 AM 37.6°F3.1°C -7.4°F-21.9°C 14% Calm Calm 2.0 mph3.2 kmh 29.76 in1007.8 mb 0.00 in0.0 mm 0.00 in0.0 mm 0.00 in0.0 mm
10:31 AM 37.6°F3.1°C -7.4°F-21.9°C 14% Calm Calm 2.0 mph3.2 kmh 29.76 in1007.8 mb 0.00 in0.0 mm 0.00 in0.0 mm 0.00 in0.0 mm
10:45 AM 37.6°F3.1°C -7.4°F-21.9°C 14% Calm Calm 2.0 mph3.2 kmh 29.76 in1007.8 mb 0.00 in0.0 mm 0.00 in0.0 mm 0.00 in0.0 mm
11:01 AM 37.6°F3.1°C -7.4°F-21.9°C 14% Calm Calm 2.0 mph3.2 kmh 29.76 in1007.8 mb 0.00 in0.0 mm 0.00 in0.0 mm 0.00 in0.0 mm
11:16 AM 37.6°F3.1°C -7.4°F-21.9°C 14% Calm Calm 2.0 mph3.2 kmh 29.76 in1007.8 mb 0.00 in0.0 mm 0.00 in0.0 mm 0.00 in0.0 mm
11:30 AM 37.6°F3.1°C -7.4°F-21.9°C 14% Calm Calm 2.0 mph3.2 kmh 29.76 in1007.8 mb 0.00 in0.0 mm 0.00 in0.0 mm 0.00 in0.0 mm
11:46 AM 37.9°F3.3°C -8.6°F-22.6°C 13% 1.4 mph N2.3 kmh N 3.4 mph5.5 kmh 29.74 in1007.1 mb 0.00 in0.0 mm 0.00 in0.0 mm 0.00 in0.0 mm
12:00 PM 37.9°F3.3°C -8.6°F-22.6°C 13% 1.4 mph N2.3 kmh N 3.4 mph5.5 kmh 29.74 in1007.1 mb 0.00 in0.0 mm 0.00 in0.0 mm 0.00 in0.0 mm
12:16 PM 37.9°F3.3°C -8.6°F-22.6°C 13% 1.4 mph N2.3 kmh N 3.4 mph5.5 kmh 29.74 in1007.1 mb 0.00 in0.0 mm 0.00 in0.0 mm 0.00 in0.0 mm
12:31 PM 37.9°F3.3°C -8.6°F-22.6°C 13% 1.4 mph N2.3 kmh N 3.4 mph5.5 kmh 29.74 in1007.1 mb 0.00 in0.0 mm 0.00 in0.0 mm 0.00 in0.0 mm
12:46 PM 37.9°F3.3°C -8.6°F-22.6°C 13% 1.4 mph N2.3 kmh N 3.4 mph5.5 kmh 29.74 in1007.1 mb 0.00 in0.0 mm 0.00 in0.0 mm 0.00 in0.0 mm
01:01 PM 37.9°F3.3°C -8.6°F-22.6°C 13% 1.4 mph N2.3 kmh N 3.4 mph5.5 kmh 29.74 in1007.1 mb 0.00 in0.0 mm 0.00 in0.0 mm 0.00 in0.0 mm
01:16 PM 37.9°F3.3°C -8.6°F-22.6°C 13% 1.4 mph N2.3 kmh N 3.4 mph5.5 kmh 29.74 in1007.1 mb 0.00 in0.0 mm 0.00 in0.0 mm 0.00 in0.0 mm
01:31 PM 38.1°F3.4°C -169.0°F-111.7°C - Calm Calm 2.0 mph3.2 kmh 29.73 in1006.8 mb 0.00 in0.0 mm 0.00 in0.0 mm 0.00 in0.0 mm
01:46 PM 38.1°F3.4°C -169.0°F-111.7°C - 0.6 mph N1.0 kmh N 4.0 mph6.4 kmh 29.72 in1006.4 mb 0.00 in0.0 mm 0.00 in0.0 mm 0.00 in0.0 mm
02:01 PM 38.1°F3.4°C -169.0°F-111.7°C - 0.6 mph N1.0 kmh N 4.0 mph6.4 kmh 29.72 in1006.4 mb 0.00 in0.0 mm 0.00 in0.0 mm 0.00 in0.0 mm
02:16 PM 38.7°F3.7°C -168.9°F-111.6°C - Calm Calm 0.6 mph1.0 kmh 29.71 in1006.1 mb 0.00 in0.0 mm 0.00 in0.0 mm 0.00 in0.0 mm
02:31 PM 38.3°F3.5°C -169.0°F-111.7°C - 1.4 mph N2.3 kmh N 2.8 mph4.5 kmh 29.71 in1006.1 mb 0.00 in0.0 mm 0.00 in0.0 mm 0.00 in0.0 mm
02:46 PM 38.1°F3.4°C -169.0°F-111.7°C - 1.4 mph N2.3 kmh N 4.0 mph6.4 kmh 29.70 in1005.8 mb 0.00 in0.0 mm 0.00 in0.0 mm 0.00 in0.0 mm
03:01 PM 38.1°F3.4°C -169.0°F-111.7°C - Calm Calm 2.8 mph4.5 kmh 29.70 in1005.8 mb 0.00 in0.0 mm 0.00 in0.0 mm 0.00 in0.0 mm
03:16 PM 38.1°F3.4°C -169.0°F-111.7°C - 2.8 mph N4.5 kmh N 4.8 mph7.7 kmh 29.69 in1005.4 mb 0.00 in0.0 mm 0.00 in0.0 mm 0.00 in0.0 mm
03:31 PM 37.9°F3.3°C -169.0°F-111.7°C - 1.4 mph N2.3 kmh N 3.4 mph5.5 kmh 29.69 in1005.4 mb 0.00 in0.0 mm 0.00 in0.0 mm 0.00 in0.0 mm
03:46 PM 37.9°F3.3°C -169.0°F-111.7°C - 2.0 mph N3.2 kmh N 4.8 mph7.7 kmh 29.69 in1005.4 mb 0.00 in0.0 mm 0.00 in0.0 mm 0.00 in0.0 mm
04:01 PM 37.9°F3.3°C -169.0°F-111.7°C - 1.4 mph N2.3 kmh N 3.4 mph5.5 kmh 29.68 in1005.1 mb 0.00 in0.0 mm 0.00 in0.0 mm 0.00 in0.0 mm
04:16 PM 37.8°F3.2°C -169.0°F-111.7°C - 1.4 mph N2.3 kmh N 2.8 mph4.5 kmh 29.68 in1005.1 mb 0.00 in0.0 mm 0.00 in0.0 mm 0.00 in0.0 mm
04:31 PM 37.4°F3.0°C -169.1°F-111.7°C - 0.6 mph N1.0 kmh N 3.4 mph5.5 kmh 29.67 in1004.7 mb 0.00 in0.0 mm 0.00 in0.0 mm 0.00 in0.0 mm
04:46 PM 37.6°F3.1°C -14.1°F-25.6°C 10% 1.4 mph N2.3 kmh N 3.4 mph5.5 kmh 29.67 in1004.7 mb 0.00 in0.0 mm 0.00 in0.0 mm 0.00 in0.0 mm
05:01 PM 37.9°F3.3°C -12.0°F-24.4°C 11% 2.0 mph N3.2 kmh N 4.0 mph6.4 kmh 29.66 in1004.4 mb 0.01 in0.3 mm 0.02 in0.5 mm 0.01 in0.3 mm
05:16 PM 37.8°F3.2°C -10.4°F-23.6°C 12% 1.4 mph N2.3 kmh N 2.8 mph4.5 kmh 29.65 in1004.1 mb 0.00 in0.0 mm 0.00 in0.0 mm 0.01 in0.3 mm
05:31 PM 37.9°F3.3°C -7.2°F-21.8°C 14% 1.4 mph N2.3 kmh N 3.4 mph5.5 kmh 29.65 in1004.1 mb 0.00 in0.0 mm 0.00 in0.0 mm 0.01 in0.3 mm
05:46 PM 38.3°F3.5°C -5.5°F-20.8°C 15% Calm Calm 2.0 mph3.2 kmh 29.65 in1004.1 mb 0.00 in0.0 mm 0.00 in0.0 mm 0.01 in0.3 mm
06:01 PM 38.3°F3.5°C -5.5°F-20.8°C 15% Calm Calm 2.0 mph3.2 kmh 29.65 in1004.1 mb 0.00 in0.0 mm 0.00 in0.0 mm 0.01 in0.3 mm
06:16 PM 39.0°F3.9°C -2.3°F-19.1°C 17% 0.6 mph N1.0 kmh N 3.4 mph5.5 kmh 29.64 in1003.7 mb 0.00 in0.0 mm 0.00 in0.0 mm 0.01 in0.3 mm
06:31 PM 39.2°F4.0°C -0.9°F-18.3°C 18% 2.0 mph N3.2 kmh N 4.0 mph6.4 kmh 29.63 in1003.4 mb 0.00 in0.0 mm 0.00 in0.0 mm 0.01 in0.3 mm
06:46 PM 39.6°F4.2°C 0.5°F-17.5°C 19% 2.8 mph N4.5 kmh N 4.8 mph7.7 kmh 29.62 in1003.0 mb 0.00 in0.0 mm 0.00 in0.0 mm 0.01 in0.3 mm
07:01 PM 39.9°F4.4°C 0.8°F-17.3°C 19% 0.6 mph N1.0 kmh N 2.8 mph4.5 kmh 29.62 in1003.0 mb 0.00 in0.0 mm 0.00 in0.0 mm 0.01 in0.3 mm
07:16 PM 40.3°F4.6°C 2.2°F-16.6°C 20% 1.4 mph N2.3 kmh N 2.8 mph4.5 kmh 29.62 in1003.0 mb 0.00 in0.0 mm 0.00 in0.0 mm 0.01 in0.3 mm
07:31 PM 41.0°F5.0°C 4.8°F-15.1°C 22% 0.6 mph N1.0 kmh N 2.0 mph3.2 kmh 29.61 in1002.7 mb 0.00 in0.0 mm 0.00 in0.0 mm 0.01 in0.3 mm
07:46 PM 41.7°F5.4°C 6.4°F-14.2°C 23% 2.0 mph N3.2 kmh N 3.4 mph5.5 kmh 29.60 in1002.4 mb 0.01 in0.3 mm 0.05 in1.3 mm 0.02 in0.5 mm
08:01 PM 42.1°F5.6°C 6.7°F-14.1°C 23% 0.6 mph N1.0 kmh N 4.8 mph7.7 kmh 29.60 in1002.4 mb 0.01 in0.3 mm 0.00 in0.0 mm 0.02 in0.5 mm
08:16 PM 42.4°F5.8°C 8.0°F-13.3°C 24% 0.6 mph N1.0 kmh N 3.4 mph5.5 kmh 29.60 in1002.4 mb 0.00 in0.0 mm 0.00 in0.0 mm 0.02 in0.5 mm
08:31 PM 42.4°F5.8°C 8.0°F-13.3°C 24% 0.6 mph N1.0 kmh N 3.4 mph5.5 kmh 29.60 in1002.4 mb 0.00 in0.0 mm 0.00 in0.0 mm 0.02 in0.5 mm
08:46 PM 43.2°F6.2°C 9.5°F-12.5°C 25% 1.4 mph N2.3 kmh N 4.8 mph7.7 kmh 29.59 in1002.0 mb 0.00 in0.0 mm 0.00 in0.0 mm 0.02 in0.5 mm
09:01 PM 43.3°F6.3°C 10.5°F-11.9°C 26% Calm Calm 3.4 mph5.5 kmh 29.59 in1002.0 mb 0.00 in0.0 mm 0.00 in0.0 mm 0.02 in0.5 mm
09:16 PM 43.5°F6.4°C 10.7°F-11.8°C 26% Calm Calm 2.0 mph3.2 kmh 29.59 in1002.0 mb 0.00 in0.0 mm 0.00 in0.0 mm 0.02 in0.5 mm
09:31 PM 43.7°F6.5°C 11.7°F-11.3°C 27% 2.0 mph N3.2 kmh N 4.0 mph6.4 kmh 29.59 in1002.0 mb 0.00 in0.0 mm 0.00 in0.0 mm 0.02 in0.5 mm
09:46 PM 43.9°F6.6°C 11.8°F-11.2°C 27% Calm Calm 3.4 mph5.5 kmh 29.59 in1002.0 mb 0.00 in0.0 mm 0.00 in0.0 mm 0.02 in0.5 mm
10:01 PM 43.9°F6.6°C 11.8°F-11.2°C 27% 2.0 mph N3.2 kmh N 4.0 mph6.4 kmh 29.58 in1001.7 mb 0.00 in0.0 mm 0.00 in0.0 mm 0.02 in0.5 mm
10:16 PM 44.2°F6.8°C 13.0°F-10.6°C 28% 2.0 mph N3.2 kmh N 4.8 mph7.7 kmh 29.58 in1001.7 mb 0.00 in0.0 mm 0.00 in0.0 mm 0.02 in0.5 mm
10:31 PM 44.1°F6.7°C 12.8°F-10.7°C 28% 0.6 mph N1.0 kmh N 2.8 mph4.5 kmh 29.58 in1001.7 mb 0.00 in0.0 mm 0.00 in0.0 mm 0.02 in0.5 mm
10:46 PM 44.1°F6.7°C 12.8°F-10.7°C 28% 0.6 mph N1.0 kmh N 2.8 mph4.5 kmh 29.57 in1001.4 mb 0.00 in0.0 mm 0.00 in0.0 mm 0.02 in0.5 mm
11:01 PM 44.2°F6.8°C 13.0°F-10.6°C 28% 1.4 mph N2.3 kmh N 3.4 mph5.5 kmh 29.57 in1001.4 mb 0.01 in0.3 mm 0.02 in0.5 mm 0.04 in1.0 mm
11:16 PM 44.2°F6.8°C 13.0°F-10.6°C 28% 1.4 mph N2.3 kmh N 3.4 mph5.5 kmh 29.57 in1001.4 mb 0.01 in0.3 mm 0.00 in0.0 mm 0.04 in1.0 mm
11:31 PM 44.4°F6.9°C 13.1°F-10.5°C 28% 0.6 mph N1.0 kmh N 3.4 mph5.5 kmh 29.57 in1001.4 mb 0.00 in0.0 mm 0.00 in0.0 mm 0.04 in1.0 mm
11:46 PM 44.4°F6.9°C 13.1°F-10.5°C 28% 0.6 mph N1.0 kmh N 4.0 mph6.4 kmh 29.57 in1001.4 mb 0.00 in0.0 mm 0.00 in0.0 mm 0.04 in1.0 mm